createdAt,value
2022-12-04T00:09:33.071Z,25.03
2022-12-04T00:12:05.468Z,25.73
2022-12-04T00:14:49.068Z,24.40
2022-12-04T00:18:41.392Z,26.00
2022-12-04T00:45:20.684Z,25.33
2022-12-04T00:47:55.809Z,25.85
2022-12-04T00:50:26.462Z,25.95
2022-12-04T00:52:56.346Z,27.33
2022-12-04T00:55:27.065Z,25.60
2022-12-04T00:58:21.333Z,31.10
2022-12-04T01:01:53.448Z,25.92
2022-12-04T01:05:07.245Z,27.35
2022-12-04T01:12:55.147Z,22.35
2022-12-04T01:15:27.549Z,23.50
2022-12-04T01:18:05.932Z,25.27
2022-12-04T01:20:45.582Z,21.00
2022-12-04T01:30:39.552Z,23.45
2022-12-04T01:33:19.781Z,22.45
2022-12-04T01:35:57.064Z,23.63
2022-12-04T01:38:43.362Z,22.83
2022-12-04T01:49:27.167Z,22.92
2022-12-04T01:52:16.367Z,23.35
2022-12-04T01:55:00.878Z,22.03
2022-12-04T01:57:33.144Z,22.95
2022-12-04T02:00:10.793Z,32.58
2022-12-04T02:02:42.818Z,22.50
2022-12-04T02:05:17.462Z,25.25
2022-12-04T02:07:49.477Z,28.53
2022-12-04T02:10:24.818Z,24.17
2022-12-04T02:12:59.458Z,26.58
2022-12-04T02:15:36.894Z,23.83
2022-12-04T02:18:11.893Z,29.90
2022-12-04T02:20:51.126Z,27.87
2022-12-04T02:23:49.175Z,25.35
2022-12-04T02:26:31.327Z,30.52
2022-12-04T02:29:37.238Z,24.20
2022-12-04T02:32:14.249Z,25.25
2022-12-04T02:34:47.858Z,25.60
2022-12-04T02:37:21.422Z,25.20
2022-12-04T02:41:12.980Z,29.33
2022-12-04T02:43:45.506Z,26.92
2022-12-04T02:46:22.808Z,24.88
2022-12-04T02:48:56.042Z,24.00
2022-12-04T02:51:27.973Z,27.20
2022-12-04T02:54:00.979Z,26.35
2022-12-04T02:56:34.482Z,24.77
2022-12-04T02:59:07.980Z,28.13
2022-12-04T03:01:53.500Z,25.93
2022-12-04T03:08:29.343Z,24.70
2022-12-04T03:11:14.463Z,28.63
2022-12-04T03:22:20.069Z,23.52
2022-12-04T03:34:07.615Z,19.92
2022-12-04T03:41:00.652Z,20.80
2022-12-04T03:43:33.959Z,18.33
2022-12-04T03:46:11.618Z,20.40
2022-12-04T03:48:46.685Z,21.45
2022-12-04T03:51:20.614Z,22.63
2022-12-04T04:02:37.491Z,18.98
2022-12-04T04:18:41.548Z,19.42
2022-12-04T04:30:00.577Z,20.92
2022-12-04T04:32:38.381Z,20.65
2022-12-04T04:35:18.966Z,18.50
2022-12-04T04:37:58.276Z,21.63
2022-12-04T04:40:35.244Z,20.17
2022-12-04T04:43:10.903Z,17.77
2022-12-04T04:45:47.091Z,18.35
2022-12-04T04:48:25.881Z,21.10
2022-12-04T04:51:08.490Z,22.83
2022-12-04T04:53:46.845Z,19.27
2022-12-04T04:56:23.298Z,18.75
2022-12-04T04:58:52.878Z,19.08
2022-12-04T05:01:26.255Z,17.17
2022-12-04T05:03:57.126Z,21.65
2022-12-04T05:06:30.227Z,21.73
2022-12-04T05:08:59.529Z,19.15
2022-12-04T05:11:28.427Z,20.75
2022-12-04T05:13:57.176Z,19.67
2022-12-04T05:16:26.155Z,24.45
2022-12-04T05:19:12.502Z,22.77
2022-12-04T05:21:42.885Z,22.55
2022-12-04T05:24:11.616Z,19.65
2022-12-04T05:26:40.360Z,17.05
2022-12-04T05:29:09.258Z,19.42
2022-12-04T05:31:38.013Z,21.07
2022-12-04T05:34:06.892Z,20.08
2022-12-04T05:36:35.514Z,20.35
2022-12-04T05:39:05.455Z,20.05
2022-12-04T05:41:34.260Z,22.08
2022-12-04T05:44:03.220Z,19.83
2022-12-04T05:46:31.914Z,21.42
2022-12-04T05:49:00.878Z,18.08
2022-12-04T05:51:30.201Z,23.30
2022-12-04T05:53:59.067Z,24.25
2022-12-04T05:56:29.212Z,21.73
2022-12-04T05:58:57.952Z,19.45
2022-12-04T06:01:27.138Z,19.88
2022-12-04T06:03:55.781Z,21.80
2022-12-04T06:06:25.627Z,22.08
2022-12-04T06:08:56.406Z,24.00
2022-12-04T06:11:27.431Z,23.77
2022-12-04T06:13:57.861Z,22.40
2022-12-04T06:16:28.283Z,23.73
2022-12-04T06:18:58.727Z,23.77
2022-12-04T06:21:29.857Z,25.27
2022-12-04T06:23:58.723Z,24.05
2022-12-04T06:26:28.684Z,24.02
2022-12-04T06:29:04.614Z,23.55
2022-12-04T06:32:23.376Z,20.38
2022-12-04T06:34:53.727Z,24.13
2022-12-04T06:37:23.456Z,23.75
2022-12-04T06:39:52.346Z,23.08
2022-12-04T06:42:21.312Z,25.45
2022-12-04T06:44:55.159Z,28.17
2022-12-04T06:47:25.427Z,23.87
2022-12-04T06:49:57.945Z,27.27
2022-12-04T06:52:34.330Z,22.15
2022-12-04T06:55:03.121Z,25.58
2022-12-04T06:57:32.313Z,23.88
2022-12-04T07:00:04.907Z,23.67
2022-12-04T07:02:34.092Z,25.10
2022-12-04T07:05:11.034Z,26.48
2022-12-04T07:07:40.100Z,22.67
2022-12-04T07:10:12.191Z,26.40
2022-12-04T07:12:41.038Z,25.93
2022-12-04T07:15:12.374Z,24.02
2022-12-04T07:17:41.107Z,28.42
2022-12-04T07:20:11.133Z,25.95
2022-12-04T07:22:39.800Z,29.55
2022-12-04T07:25:08.853Z,28.80
2022-12-04T07:27:37.601Z,34.63
2022-12-04T07:30:12.552Z,34.08
2022-12-04T07:32:45.361Z,28.98
2022-12-04T07:35:14.122Z,29.67
2022-12-04T07:37:43.090Z,33.47
2022-12-04T07:40:17.076Z,31.92
2022-12-04T07:42:46.037Z,39.60
2022-12-04T07:45:15.168Z,34.50
2022-12-04T07:47:45.571Z,33.65
2022-12-04T07:50:21.626Z,38.53
2022-12-04T07:52:50.364Z,31.75
2022-12-04T07:55:23.253Z,28.23
2022-12-04T07:57:52.574Z,30.23
2022-12-04T08:00:45.510Z,32.97
2022-12-04T08:03:15.719Z,30.40
2022-12-04T08:05:44.688Z,32.00
2022-12-04T08:08:13.678Z,30.30
2022-12-04T08:10:42.378Z,31.38
2022-12-04T08:13:11.197Z,32.55
2022-12-04T08:15:40.158Z,28.80
2022-12-04T08:18:08.832Z,33.80
2022-12-04T08:20:38.815Z,33.75
2022-12-04T08:23:07.707Z,36.42
2022-12-04T08:25:37.312Z,35.60
2022-12-04T08:28:06.140Z,34.23
2022-12-04T08:30:34.860Z,35.13
2022-12-04T08:33:03.342Z,37.38
2022-12-04T08:35:31.818Z,34.47
2022-12-04T08:38:01.285Z,31.25
2022-12-04T08:40:29.686Z,31.77
2022-12-04T08:42:58.142Z,32.80
2022-12-04T08:45:26.535Z,34.10
2022-12-04T08:47:54.854Z,35.55
2022-12-04T08:50:23.260Z,33.58
2022-12-04T08:52:57.683Z,36.20
2022-12-04T08:55:27.701Z,30.60
2022-12-04T08:57:56.283Z,32.92
2022-12-04T09:00:47.014Z,38.15
2022-12-04T09:03:18.293Z,36.08
2022-12-04T09:05:47.289Z,34.27
2022-12-04T09:08:16.904Z,33.35
2022-12-04T09:10:47.281Z,44.30
2022-12-04T09:13:16.276Z,37.72
2022-12-04T09:15:44.966Z,39.58
2022-12-04T09:18:13.599Z,36.17
2022-12-04T09:20:42.093Z,35.78
2022-12-04T09:23:10.508Z,35.72
2022-12-04T09:25:39.208Z,37.33
2022-12-04T09:28:08.566Z,35.40
2022-12-04T09:30:47.284Z,41.87
2022-12-04T09:33:16.438Z,37.22
2022-12-04T09:35:45.166Z,40.00
2022-12-04T09:38:13.737Z,35.90
2022-12-04T09:40:50.874Z,33.10
2022-12-04T09:43:31.987Z,38.67
2022-12-04T09:46:06.019Z,30.00
2022-12-04T09:48:37.112Z,36.30
2022-12-04T09:51:08.203Z,32.03
2022-12-04T09:53:44.774Z,36.75
2022-12-04T09:56:16.536Z,30.73
2022-12-04T09:58:51.012Z,39.70
2022-12-04T10:01:24.623Z,34.97
2022-12-04T10:03:56.916Z,32.30
2022-12-04T10:06:33.626Z,35.72
2022-12-04T10:09:05.460Z,27.40
2022-12-04T10:11:47.350Z,26.70
2022-12-04T10:14:36.350Z,30.10
2022-12-04T10:17:32.659Z,28.13
2022-12-04T10:20:12.798Z,26.83
2022-12-04T10:22:52.831Z,31.43
2022-12-04T10:25:23.578Z,28.80
2022-12-04T10:27:56.850Z,28.45
2022-12-04T10:30:36.299Z,27.25
2022-12-04T10:33:15.464Z,26.52
2022-12-04T10:35:45.874Z,27.17
2022-12-04T10:38:31.538Z,31.05
2022-12-04T10:41:03.906Z,28.20
2022-12-04T10:43:37.624Z,30.52
2022-12-04T10:46:10.238Z,26.60
2022-12-04T10:48:41.714Z,29.53
2022-12-04T10:51:16.162Z,30.00
2022-12-04T10:53:49.580Z,32.72
2022-12-04T10:56:20.305Z,33.13
2022-12-04T10:59:00.579Z,29.30
2022-12-04T11:01:32.467Z,31.23
2022-12-04T11:04:04.072Z,30.77
2022-12-04T11:06:33.500Z,35.53
2022-12-04T11:09:03.924Z,28.38
2022-12-04T11:11:40.131Z,31.60
2022-12-04T11:14:20.597Z,31.57
2022-12-04T11:17:06.350Z,29.77
2022-12-04T11:19:38.211Z,30.42
2022-12-04T11:22:19.604Z,35.28
2022-12-04T11:24:57.644Z,30.95
2022-12-04T11:27:40.933Z,29.77
2022-12-04T11:30:21.079Z,32.20
2022-12-04T11:32:55.494Z,40.10
2022-12-04T11:35:26.939Z,35.10
2022-12-04T11:37:59.146Z,33.75
2022-12-04T11:40:29.029Z,27.83
2022-12-04T11:43:03.132Z,29.80
2022-12-04T11:45:31.818Z,31.67
2022-12-04T11:48:06.270Z,28.55
2022-12-04T11:50:47.337Z,32.08
2022-12-04T11:53:20.121Z,32.67
2022-12-04T11:56:20.063Z,30.85
2022-12-04T11:59:05.515Z,37.70
2022-12-04T12:01:47.169Z,31.98
2022-12-04T12:04:52.537Z,35.05
2022-12-04T12:07:32.676Z,32.10
2022-12-04T12:10:07.643Z,31.23
2022-12-04T12:12:48.411Z,31.58
2022-12-04T12:15:24.954Z,32.45
2022-12-04T12:18:06.250Z,39.00
2022-12-04T12:20:42.619Z,30.23
2022-12-04T12:23:24.508Z,28.38
2022-12-04T12:26:02.616Z,27.85
2022-12-04T12:29:01.539Z,30.83
2022-12-04T12:31:44.932Z,29.02
2022-12-04T12:34:17.473Z,38.10
2022-12-04T12:36:53.319Z,34.70
2022-12-04T12:39:31.676Z,33.92
2022-12-04T12:42:13.587Z,26.75
2022-12-04T12:44:48.636Z,47.97
2022-12-04T12:47:20.623Z,36.50
2022-12-04T12:49:57.074Z,28.42
2022-12-04T12:52:34.236Z,33.92
2022-12-04T12:55:06.912Z,29.90
2022-12-04T12:57:38.495Z,34.20
2022-12-04T13:00:14.925Z,29.63
2022-12-04T13:02:49.836Z,32.03
2022-12-04T13:05:23.314Z,32.67
2022-12-04T13:08:04.255Z,34.85
2022-12-04T13:10:38.032Z,35.13
2022-12-04T13:13:14.221Z,34.17
2022-12-04T13:15:53.169Z,34.83
2022-12-04T13:18:27.674Z,31.73
2022-12-04T13:21:00.441Z,33.35
2022-12-04T13:23:48.349Z,35.67
2022-12-04T13:26:30.157Z,32.77
2022-12-04T13:29:10.423Z,28.85
2022-12-04T13:31:53.683Z,26.27
2022-12-04T13:34:48.482Z,31.20
2022-12-04T13:37:38.319Z,34.47
2022-12-04T13:40:34.465Z,29.87
2022-12-04T13:43:29.295Z,27.50
2022-12-04T13:46:00.482Z,41.60
2022-12-04T13:48:36.976Z,33.40
2022-12-04T13:51:22.152Z,36.08
2022-12-04T13:54:02.308Z,37.73
2022-12-04T13:56:34.265Z,34.97
2022-12-04T13:59:04.799Z,38.65
2022-12-04T14:01:39.663Z,30.33
2022-12-04T14:04:09.643Z,31.40
2022-12-04T14:06:46.493Z,36.20
2022-12-04T14:09:25.655Z,30.25
2022-12-04T14:12:00.894Z,31.02
2022-12-04T14:14:32.941Z,33.03
2022-12-04T14:17:02.314Z,25.73
2022-12-04T14:19:34.425Z,32.10
2022-12-04T14:22:04.566Z,28.02
2022-12-04T14:24:37.131Z,28.55
2022-12-04T14:27:44.696Z,36.53
2022-12-04T14:30:20.725Z,27.90
2022-12-04T14:32:51.926Z,35.63
2022-12-04T14:35:24.581Z,29.48
2022-12-04T14:37:58.432Z,30.10
2022-12-04T14:40:28.927Z,28.77
2022-12-04T14:42:59.885Z,36.28
2022-12-04T14:45:35.611Z,29.87
2022-12-04T14:48:24.995Z,29.15
2022-12-04T14:51:01.761Z,30.30
2022-12-04T14:53:40.362Z,27.70
2022-12-04T14:56:23.487Z,28.27
2022-12-04T14:58:53.837Z,27.77
2022-12-04T15:01:28.987Z,25.25
2022-12-04T15:04:03.634Z,24.88
2022-12-04T15:06:34.413Z,25.10
2022-12-04T15:09:18.917Z,25.40
2022-12-04T15:12:06.935Z,26.03
2022-12-04T15:14:52.700Z,23.60
2022-12-04T15:17:21.662Z,26.35
2022-12-04T15:19:50.497Z,29.48
2022-12-04T15:22:24.541Z,25.35
2022-12-04T15:24:53.613Z,26.37
2022-12-04T15:27:30.611Z,27.00
2022-12-04T15:30:04.933Z,30.17
2022-12-04T15:32:34.583Z,24.83
2022-12-04T15:35:09.173Z,23.90
2022-12-04T15:37:38.203Z,21.90
2022-12-04T15:40:08.344Z,25.67
2022-12-04T15:42:37.283Z,27.48
2022-12-04T15:45:35.308Z,22.95
2022-12-04T15:48:04.086Z,25.15
2022-12-04T15:50:33.029Z,21.87
2022-12-04T15:53:09.765Z,22.75
2022-12-04T15:55:47.676Z,25.17
2022-12-04T15:58:22.358Z,23.38
2022-12-04T16:01:01.679Z,24.73
2022-12-04T16:03:32.565Z,25.70
2022-12-04T16:06:10.828Z,23.63
2022-12-04T16:08:42.067Z,22.60
2022-12-04T16:11:33.402Z,22.55
2022-12-04T16:14:15.183Z,26.80
2022-12-04T16:16:47.502Z,24.00
2022-12-04T16:19:19.427Z,21.90
2022-12-04T16:21:48.306Z,24.45
2022-12-04T16:24:17.504Z,23.80
2022-12-04T16:26:46.371Z,22.25
2022-12-04T16:29:15.184Z,26.27
2022-12-04T16:31:45.377Z,22.45
2022-12-04T16:34:38.158Z,27.15
2022-12-04T16:37:13.200Z,24.58
2022-12-04T16:39:42.089Z,22.80
2022-12-04T16:42:22.145Z,25.63
2022-12-04T16:44:51.337Z,29.25
2022-12-04T16:47:21.963Z,23.52
2022-12-04T16:49:52.098Z,25.88
2022-12-04T16:52:21.464Z,24.23
2022-12-04T16:54:50.190Z,23.07
2022-12-04T16:58:11.697Z,25.23
2022-12-04T17:00:43.798Z,27.42
2022-12-04T17:03:19.739Z,28.35
2022-12-04T17:05:48.869Z,28.73
2022-12-04T17:08:17.800Z,26.07
2022-12-04T17:10:46.519Z,24.77
2022-12-04T17:13:18.908Z,27.55
2022-12-04T17:15:47.714Z,24.85
2022-12-04T21:24:55.640Z,19.45
2022-12-04T21:27:27.356Z,22.45
2022-12-04T21:29:56.521Z,19.35
2022-12-04T21:32:27.524Z,20.42
2022-12-04T21:34:58.884Z,20.80
2022-12-04T21:37:29.311Z,21.05
2022-12-04T21:39:59.621Z,23.13
2022-12-04T21:42:38.996Z,44.13
2022-12-04T21:45:13.276Z,37.78
2022-12-04T21:47:42.434Z,22.65
2022-12-04T21:50:13.586Z,20.05
2022-12-04T21:52:43.495Z,39.30
2022-12-04T21:55:13.567Z,28.98
2022-12-04T21:57:42.319Z,24.77
2022-12-04T22:00:12.275Z,38.40
2022-12-04T22:02:41.297Z,26.52
2022-12-04T22:05:10.534Z,19.73
2022-12-04T22:07:39.192Z,18.70
2022-12-04T22:10:11.195Z,42.75
2022-12-04T22:12:49.937Z,24.00
2022-12-04T22:15:19.189Z,20.88
2022-12-04T22:17:47.874Z,26.15
2022-12-04T22:20:16.867Z,21.00
2022-12-04T22:22:45.660Z,25.90
2022-12-04T22:25:15.683Z,24.30
2022-12-04T22:27:44.243Z,18.63
2022-12-04T22:30:14.192Z,18.25
2022-12-04T22:32:42.761Z,16.13
2022-12-04T22:35:11.554Z,23.17
2022-12-04T22:37:44.376Z,32.45
2022-12-04T22:40:16.198Z,45.35
2022-12-04T22:42:45.101Z,24.13
2022-12-04T22:45:16.249Z,33.67
2022-12-04T22:47:45.082Z,28.25
2022-12-04T22:50:13.966Z,21.10
2022-12-04T22:52:42.649Z,31.40
2022-12-04T22:55:11.452Z,21.75
2022-12-04T22:57:44.326Z,17.33
2022-12-04T23:00:15.569Z,15.68
2022-12-04T23:02:44.161Z,17.77
2022-12-04T23:05:13.047Z,19.67
2022-12-04T23:07:41.840Z,15.90
2022-12-04T23:10:12.149Z,19.08
2022-12-04T23:12:42.083Z,17.73
2022-12-04T23:15:11.358Z,19.80
2022-12-04T23:17:40.218Z,18.35
2022-12-04T23:20:09.513Z,17.80
2022-12-04T23:22:38.313Z,17.83
2022-12-04T23:25:07.870Z,17.42
2022-12-04T23:27:36.498Z,18.52
2022-12-04T23:30:08.243Z,18.35
2022-12-04T23:32:36.964Z,17.75
2022-12-04T23:35:06.041Z,19.00
2022-12-04T23:37:38.047Z,20.10
2022-12-04T23:40:08.534Z,15.90
2022-12-04T23:42:37.236Z,18.13
2022-12-04T23:45:08.485Z,19.48
2022-12-04T23:47:37.324Z,18.77
2022-12-04T23:50:06.772Z,20.25
2022-12-04T23:52:36.690Z,17.23
2022-12-04T23:55:05.785Z,17.15
2022-12-04T23:57:34.508Z,18.40
